sensor_id;sensor_type;location;lat;lon;timestamp;temperature;humidity
54930;DHT22;40833;53.238;6.576;2023-08-06T00:00:22;13.70;99.90
54930;DHT22;40833;53.238;6.576;2023-08-06T00:02:48;13.70;99.90
54930;DHT22;40833;53.238;6.576;2023-08-06T00:05:14;13.70;99.90
54930;DHT22;40833;53.238;6.576;2023-08-06T00:07:44;13.70;99.90
54930;DHT22;40833;53.238;6.576;2023-08-06T00:10:10;13.70;99.90
54930;DHT22;40833;53.238;6.576;2023-08-06T00:12:36;13.70;99.90
54930;DHT22;40833;53.238;6.576;2023-08-06T00:15:02;13.70;99.90
54930;DHT22;40833;53.238;6.576;2023-08-06T00:17:28;13.70;99.90
54930;DHT22;40833;53.238;6.576;2023-08-06T00:19:53;13.70;99.90
54930;DHT22;40833;53.238;6.576;2023-08-06T00:22:19;13.70;99.90
54930;DHT22;40833;53.238;6.576;2023-08-06T00:24:45;13.70;99.90
54930;DHT22;40833;53.238;6.576;2023-08-06T00:27:10;13.70;99.90
54930;DHT22;40833;53.238;6.576;2023-08-06T00:29:36;13.70;99.90
54930;DHT22;40833;53.238;6.576;2023-08-06T00:32:02;13.70;99.90
54930;DHT22;40833;53.238;6.576;2023-08-06T00:34:27;13.80;99.90
54930;DHT22;40833;53.238;6.576;2023-08-06T00:36:53;13.80;99.90
54930;DHT22;40833;53.238;6.576;2023-08-06T00:39:19;13.70;99.90
54930;DHT22;40833;53.238;6.576;2023-08-06T00:41:45;13.80;99.90
54930;DHT22;40833;53.238;6.576;2023-08-06T00:44:11;13.70;99.90
54930;DHT22;40833;53.238;6.576;2023-08-06T00:46:36;13.80;99.90
54930;DHT22;40833;53.238;6.576;2023-08-06T00:49:03;13.80;99.90
54930;DHT22;40833;53.238;6.576;2023-08-06T00:51:29;13.70;99.90
54930;DHT22;40833;53.238;6.576;2023-08-06T00:53:54;13.80;99.90
54930;DHT22;40833;53.238;6.576;2023-08-06T00:56:21;13.80;99.90
54930;DHT22;40833;53.238;6.576;2023-08-06T00:58:47;13.80;99.90
54930;DHT22;40833;53.238;6.576;2023-08-06T01:01:12;13.80;99.90
54930;DHT22;40833;53.238;6.576;2023-08-06T01:03:38;13.80;99.90
54930;DHT22;40833;53.238;6.576;2023-08-06T01:06:04;13.80;99.90
54930;DHT22;40833;53.238;6.576;2023-08-06T01:11:42;13.80;99.90
54930;DHT22;40833;53.238;6.576;2023-08-06T01:17:12;13.80;99.90
54930;DHT22;40833;53.238;6.576;2023-08-06T01:19:38;13.80;99.90
54930;DHT22;40833;53.238;6.576;2023-08-06T01:22:04;13.80;99.90
54930;DHT22;40833;53.238;6.576;2023-08-06T01:24:30;13.80;99.90
54930;DHT22;40833;53.238;6.576;2023-08-06T01:27:09;13.80;99.90
54930;DHT22;40833;53.238;6.576;2023-08-06T01:29:47;13.80;99.90
54930;DHT22;40833;53.238;6.576;2023-08-06T01:32:14;13.80;99.90
54930;DHT22;40833;53.238;6.576;2023-08-06T01:34:43;13.80;99.90
54930;DHT22;40833;53.238;6.576;2023-08-06T01:37:11;13.80;99.90
54930;DHT22;40833;53.238;6.576;2023-08-06T01:39:37;13.70;99.90
54930;DHT22;40833;53.238;6.576;2023-08-06T01:42:05;13.80;99.90
54930;DHT22;40833;53.238;6.576;2023-08-06T01:44:31;13.70;99.90
54930;DHT22;40833;53.238;6.576;2023-08-06T01:46:57;13.70;99.90
54930;DHT22;40833;53.238;6.576;2023-08-06T01:49:23;13.80;99.90
54930;DHT22;40833;53.238;6.576;2023-08-06T01:51:48;13.80;99.90
54930;DHT22;40833;53.238;6.576;2023-08-06T01:54:14;13.80;99.90
54930;DHT22;40833;53.238;6.576;2023-08-06T01:56:40;13.80;99.90
54930;DHT22;40833;53.238;6.576;2023-08-06T01:59:06;13.80;99.90
54930;DHT22;40833;53.238;6.576;2023-08-06T02:01:31;13.80;99.90
54930;DHT22;40833;53.238;6.576;2023-08-06T02:03:57;13.80;99.90
54930;DHT22;40833;53.238;6.576;2023-08-06T02:06:23;13.80;99.90
54930;DHT22;40833;53.238;6.576;2023-08-06T02:08:48;13.60;99.90
54930;DHT22;40833;53.238;6.576;2023-08-06T02:11:14;13.80;99.90
54930;DHT22;40833;53.238;6.576;2023-08-06T02:13:39;13.80;99.90
54930;DHT22;40833;53.238;6.576;2023-08-06T02:16:07;13.80;99.90
54930;DHT22;40833;53.238;6.576;2023-08-06T02:18:34;13.80;99.90
54930;DHT22;40833;53.238;6.576;2023-08-06T02:21:00;13.80;99.90
54930;DHT22;40833;53.238;6.576;2023-08-06T02:23:26;13.80;99.90
54930;DHT22;40833;53.238;6.576;2023-08-06T02:26:02;13.80;99.90
54930;DHT22;40833;53.238;6.576;2023-08-06T02:28:29;13.90;99.90
54930;DHT22;40833;53.238;6.576;2023-08-06T02:30:55;13.80;99.90
54930;DHT22;40833;53.238;6.576;2023-08-06T02:33:20;13.80;99.90
54930;DHT22;40833;53.238;6.576;2023-08-06T02:35:46;13.70;99.90
54930;DHT22;40833;53.238;6.576;2023-08-06T02:38:12;13.80;99.90
54930;DHT22;40833;53.238;6.576;2023-08-06T02:40:43;13.80;99.90
54930;DHT22;40833;53.238;6.576;2023-08-06T02:43:09;13.70;99.90
54930;DHT22;40833;53.238;6.576;2023-08-06T02:45:35;13.70;99.90
54930;DHT22;40833;53.238;6.576;2023-08-06T02:48:01;13.80;99.90
54930;DHT22;40833;53.238;6.576;2023-08-06T02:50:27;13.80;99.90
54930;DHT22;40833;53.238;6.576;2023-08-06T02:52:53;13.80;99.90
54930;DHT22;40833;53.238;6.576;2023-08-06T02:55:19;13.80;99.90
54930;DHT22;40833;53.238;6.576;2023-08-06T02:57:44;13.80;99.90
54930;DHT22;40833;53.238;6.576;2023-08-06T03:00:10;13.80;99.90
54930;DHT22;40833;53.238;6.576;2023-08-06T03:02:37;13.80;99.90
54930;DHT22;40833;53.238;6.576;2023-08-06T03:05:03;13.80;99.90
54930;DHT22;40833;53.238;6.576;2023-08-06T03:07:29;13.80;99.90
54930;DHT22;40833;53.238;6.576;2023-08-06T03:09:55;13.80;99.90
54930;DHT22;40833;53.238;6.576;2023-08-06T03:12:20;13.90;99.90
54930;DHT22;40833;53.238;6.576;2023-08-06T03:14:46;13.80;99.90
54930;DHT22;40833;53.238;6.576;2023-08-06T03:17:12;13.90;99.90
54930;DHT22;40833;53.238;6.576;2023-08-06T03:19:37;13.80;99.90
54930;DHT22;40833;53.238;6.576;2023-08-06T03:22:03;13.80;99.90
54930;DHT22;40833;53.238;6.576;2023-08-06T03:24:29;13.80;99.90
54930;DHT22;40833;53.238;6.576;2023-08-06T03:26:54;13.80;99.90
54930;DHT22;40833;53.238;6.576;2023-08-06T03:29:20;13.80;99.90
54930;DHT22;40833;53.238;6.576;2023-08-06T03:31:47;13.90;99.90
54930;DHT22;40833;53.238;6.576;2023-08-06T03:34:12;13.80;99.90
54930;DHT22;40833;53.238;6.576;2023-08-06T03:36:38;13.90;99.90
54930;DHT22;40833;53.238;6.576;2023-08-06T03:39:04;13.80;99.90
54930;DHT22;40833;53.238;6.576;2023-08-06T03:41:30;13.80;99.90
54930;DHT22;40833;53.238;6.576;2023-08-06T03:43:55;13.80;99.90
54930;DHT22;40833;53.238;6.576;2023-08-06T03:46:21;13.80;99.90
54930;DHT22;40833;53.238;6.576;2023-08-06T03:48:47;13.80;99.90
54930;DHT22;40833;53.238;6.576;2023-08-06T03:51:12;13.80;99.90
54930;DHT22;40833;53.238;6.576;2023-08-06T03:53:38;13.70;99.90
54930;DHT22;40833;53.238;6.576;2023-08-06T03:56:04;13.70;99.90
54930;DHT22;40833;53.238;6.576;2023-08-06T03:58:29;13.70;99.90
54930;DHT22;40833;53.238;6.576;2023-08-06T04:01:02;13.70;99.90
54930;DHT22;40833;53.238;6.576;2023-08-06T04:03:28;13.80;99.90
54930;DHT22;40833;53.238;6.576;2023-08-06T04:05:55;13.80;99.90
54930;DHT22;40833;53.238;6.576;2023-08-06T04:08:20;13.70;99.90
54930;DHT22;40833;53.238;6.576;2023-08-06T04:10:50;13.80;99.90
54930;DHT22;40833;53.238;6.576;2023-08-06T04:13:16;13.80;99.90
54930;DHT22;40833;53.238;6.576;2023-08-06T04:15:42;13.80;99.90
54930;DHT22;40833;53.238;6.576;2023-08-06T04:18:08;13.80;99.90
54930;DHT22;40833;53.238;6.576;2023-08-06T04:20:33;13.80;99.90
54930;DHT22;40833;53.238;6.576;2023-08-06T04:22:59;13.80;99.90
54930;DHT22;40833;53.238;6.576;2023-08-06T04:25:31;13.80;99.90
54930;DHT22;40833;53.238;6.576;2023-08-06T04:27:56;13.80;99.90
54930;DHT22;40833;53.238;6.576;2023-08-06T04:30:22;13.80;99.90
54930;DHT22;40833;53.238;6.576;2023-08-06T04:32:49;13.80;99.90
54930;DHT22;40833;53.238;6.576;2023-08-06T04:35:15;13.80;99.90
54930;DHT22;40833;53.238;6.576;2023-08-06T04:37:41;13.90;99.90
54930;DHT22;40833;53.238;6.576;2023-08-06T04:40:07;13.80;99.90
54930;DHT22;40833;53.238;6.576;2023-08-06T04:42:33;13.90;99.90
54930;DHT22;40833;53.238;6.576;2023-08-06T04:45:01;13.80;99.90
54930;DHT22;40833;53.238;6.576;2023-08-06T04:47:26;13.90;99.90
54930;DHT22;40833;53.238;6.576;2023-08-06T04:49:52;13.90;99.90
54930;DHT22;40833;53.238;6.576;2023-08-06T04:52:18;13.90;99.90
54930;DHT22;40833;53.238;6.576;2023-08-06T04:54:44;13.90;99.90
54930;DHT22;40833;53.238;6.576;2023-08-06T04:57:09;13.90;99.90
54930;DHT22;40833;53.238;6.576;2023-08-06T04:59:35;13.90;99.90
54930;DHT22;40833;53.238;6.576;2023-08-06T05:02:01;13.90;99.90
54930;DHT22;40833;53.238;6.576;2023-08-06T05:04:27;13.90;99.90
54930;DHT22;40833;53.238;6.576;2023-08-06T05:06:53;13.80;99.90
54930;DHT22;40833;53.238;6.576;2023-08-06T05:09:18;13.80;99.90
54930;DHT22;40833;53.238;6.576;2023-08-06T05:11:46;13.80;99.90
54930;DHT22;40833;53.238;6.576;2023-08-06T05:14:11;13.80;99.90
54930;DHT22;40833;53.238;6.576;2023-08-06T05:16:37;13.80;99.90
54930;DHT22;40833;53.238;6.576;2023-08-06T05:19:03;13.80;99.90
54930;DHT22;40833;53.238;6.576;2023-08-06T05:21:28;13.80;99.90
54930;DHT22;40833;53.238;6.576;2023-08-06T05:23:54;13.80;99.90
54930;DHT22;40833;53.238;6.576;2023-08-06T05:26:20;13.80;99.90
54930;DHT22;40833;53.238;6.576;2023-08-06T05:28:45;13.80;99.90
54930;DHT22;40833;53.238;6.576;2023-08-06T05:31:11;13.80;99.90
54930;DHT22;40833;53.238;6.576;2023-08-06T05:33:37;13.80;99.90
54930;DHT22;40833;53.238;6.576;2023-08-06T05:36:03;13.80;99.90
54930;DHT22;40833;53.238;6.576;2023-08-06T05:38:29;13.90;99.90
54930;DHT22;40833;53.238;6.576;2023-08-06T05:40:55;13.90;99.90
54930;DHT22;40833;53.238;6.576;2023-08-06T05:43:22;13.90;99.90
54930;DHT22;40833;53.238;6.576;2023-08-06T05:45:49;14.00;99.90
54930;DHT22;40833;53.238;6.576;2023-08-06T05:48:15;14.00;99.90
54930;DHT22;40833;53.238;6.576;2023-08-06T05:50:41;14.10;99.90
54930;DHT22;40833;53.238;6.576;2023-08-06T05:53:07;14.20;99.90
54930;DHT22;40833;53.238;6.576;2023-08-06T05:55:33;14.20;99.90
54930;DHT22;40833;53.238;6.576;2023-08-06T05:57:59;14.30;99.90
54930;DHT22;40833;53.238;6.576;2023-08-06T06:00:24;14.40;99.90
54930;DHT22;40833;53.238;6.576;2023-08-06T06:02:50;14.60;99.90
54930;DHT22;40833;53.238;6.576;2023-08-06T06:05:16;16.60;99.90
54930;DHT22;40833;53.238;6.576;2023-08-06T06:07:42;15.50;99.90
54930;DHT22;40833;53.238;6.576;2023-08-06T06:10:08;14.80;99.90
54930;DHT22;40833;53.238;6.576;2023-08-06T06:12:33;14.90;99.90
54930;DHT22;40833;53.238;6.576;2023-08-06T06:14:59;15.00;99.90
54930;DHT22;40833;53.238;6.576;2023-08-06T06:17:29;15.10;99.90
54930;DHT22;40833;53.238;6.576;2023-08-06T06:19:54;15.20;99.90
54930;DHT22;40833;53.238;6.576;2023-08-06T06:22:20;15.30;99.90
54930;DHT22;40833;53.238;6.576;2023-08-06T06:24:46;15.30;99.90
54930;DHT22;40833;53.238;6.576;2023-08-06T06:27:12;15.40;99.90
54930;DHT22;40833;53.238;6.576;2023-08-06T06:29:37;15.50;99.90
54930;DHT22;40833;53.238;6.576;2023-08-06T06:32:03;15.60;99.90
54930;DHT22;40833;53.238;6.576;2023-08-06T06:34:29;15.70;99.90
54930;DHT22;40833;53.238;6.576;2023-08-06T06:36:54;15.70;99.90
54930;DHT22;40833;53.238;6.576;2023-08-06T06:39:21;15.90;99.90
54930;DHT22;40833;53.238;6.576;2023-08-06T06:41:46;15.90;99.90
54930;DHT22;40833;53.238;6.576;2023-08-06T06:44:13;16.00;99.90
54930;DHT22;40833;53.238;6.576;2023-08-06T06:46:39;16.10;99.90
54930;DHT22;40833;53.238;6.576;2023-08-06T06:49:04;16.10;99.90
54930;DHT22;40833;53.238;6.576;2023-08-06T06:51:30;16.20;99.90
54930;DHT22;40833;53.238;6.576;2023-08-06T06:53:57;16.30;99.90
54930;DHT22;40833;53.238;6.576;2023-08-06T06:56:23;16.30;99.90
54930;DHT22;40833;53.238;6.576;2023-08-06T06:58:48;16.40;99.90
54930;DHT22;40833;53.238;6.576;2023-08-06T07:01:14;16.40;99.90
54930;DHT22;40833;53.238;6.576;2023-08-06T07:03:40;16.60;99.90
54930;DHT22;40833;53.238;6.576;2023-08-06T07:06:06;16.60;99.90
54930;DHT22;40833;53.238;6.576;2023-08-06T07:08:32;16.70;99.90
54930;DHT22;40833;53.238;6.576;2023-08-06T07:11:05;16.80;99.90
54930;DHT22;40833;53.238;6.576;2023-08-06T07:13:31;16.90;99.90
54930;DHT22;40833;53.238;6.576;2023-08-06T07:15:57;16.90;99.90
54930;DHT22;40833;53.238;6.576;2023-08-06T07:18:24;17.00;99.90
54930;DHT22;40833;53.238;6.576;2023-08-06T07:20:54;16.90;99.90
54930;DHT22;40833;53.238;6.576;2023-08-06T07:23:24;16.90;99.90
54930;DHT22;40833;53.238;6.576;2023-08-06T07:25:50;17.00;99.90
54930;DHT22;40833;53.238;6.576;2023-08-06T07:28:16;17.00;99.90
54930;DHT22;40833;53.238;6.576;2023-08-06T07:30:43;17.00;99.90
54930;DHT22;40833;53.238;6.576;2023-08-06T07:33:09;17.00;99.90
54930;DHT22;40833;53.238;6.576;2023-08-06T07:35:36;16.90;99.90
54930;DHT22;40833;53.238;6.576;2023-08-06T07:38:02;16.90;99.90
54930;DHT22;40833;53.238;6.576;2023-08-06T07:40:28;16.90;99.90
54930;DHT22;40833;53.238;6.576;2023-08-06T07:42:54;16.90;99.90
54930;DHT22;40833;53.238;6.576;2023-08-06T07:45:20;17.00;99.90
54930;DHT22;40833;53.238;6.576;2023-08-06T07:47:46;16.90;99.90
54930;DHT22;40833;53.238;6.576;2023-08-06T07:50:12;16.90;99.90
54930;DHT22;40833;53.238;6.576;2023-08-06T07:52:38;17.00;99.90
54930;DHT22;40833;53.238;6.576;2023-08-06T07:55:04;17.00;99.90
54930;DHT22;40833;53.238;6.576;2023-08-06T07:57:31;17.10;99.90
54930;DHT22;40833;53.238;6.576;2023-08-06T07:59:57;17.20;99.90
54930;DHT22;40833;53.238;6.576;2023-08-06T08:02:23;17.30;99.90
54930;DHT22;40833;53.238;6.576;2023-08-06T08:04:49;17.40;99.90
54930;DHT22;40833;53.238;6.576;2023-08-06T08:07:14;17.40;99.90
54930;DHT22;40833;53.238;6.576;2023-08-06T08:09:40;17.40;99.90
54930;DHT22;40833;53.238;6.576;2023-08-06T08:12:06;17.50;99.90
54930;DHT22;40833;53.238;6.576;2023-08-06T08:14:32;17.60;99.90
54930;DHT22;40833;53.238;6.576;2023-08-06T08:17:04;17.70;99.90
54930;DHT22;40833;53.238;6.576;2023-08-06T08:19:31;17.90;99.90
54930;DHT22;40833;53.238;6.576;2023-08-06T08:21:57;18.00;99.90
54930;DHT22;40833;53.238;6.576;2023-08-06T08:24:23;18.10;99.90
54930;DHT22;40833;53.238;6.576;2023-08-06T08:26:52;18.20;99.90
54930;DHT22;40833;53.238;6.576;2023-08-06T08:29:19;18.30;99.90
54930;DHT22;40833;53.238;6.576;2023-08-06T08:31:46;18.40;99.90
54930;DHT22;40833;53.238;6.576;2023-08-06T08:34:14;18.50;99.90
54930;DHT22;40833;53.238;6.576;2023-08-06T08:36:40;18.50;99.90
54930;DHT22;40833;53.238;6.576;2023-08-06T08:39:06;18.70;99.90
54930;DHT22;40833;53.238;6.576;2023-08-06T08:41:33;18.70;99.90
54930;DHT22;40833;53.238;6.576;2023-08-06T08:43:59;18.80;99.90
54930;DHT22;40833;53.238;6.576;2023-08-06T08:46:36;18.90;99.90
54930;DHT22;40833;53.238;6.576;2023-08-06T08:49:04;19.00;99.90
54930;DHT22;40833;53.238;6.576;2023-08-06T08:51:30;19.00;99.90
54930;DHT22;40833;53.238;6.576;2023-08-06T08:53:56;19.10;99.90
54930;DHT22;40833;53.238;6.576;2023-08-06T08:56:23;19.20;99.90
54930;DHT22;40833;53.238;6.576;2023-08-06T08:58:48;19.30;99.90
54930;DHT22;40833;53.238;6.576;2023-08-06T09:01:15;19.50;99.90
54930;DHT22;40833;53.238;6.576;2023-08-06T09:03:41;19.60;99.90
54930;DHT22;40833;53.238;6.576;2023-08-06T09:06:08;19.70;99.90
54930;DHT22;40833;53.238;6.576;2023-08-06T09:08:41;19.80;99.90
54930;DHT22;40833;53.238;6.576;2023-08-06T09:11:09;19.90;99.90
54930;DHT22;40833;53.238;6.576;2023-08-06T09:13:37;20.10;99.90
54930;DHT22;40833;53.238;6.576;2023-08-06T09:16:03;20.20;99.90
54930;DHT22;40833;53.238;6.576;2023-08-06T09:18:30;20.30;99.90
54930;DHT22;40833;53.238;6.576;2023-08-06T09:20:57;20.30;99.90
54930;DHT22;40833;53.238;6.576;2023-08-06T09:23:32;20.40;99.90
54930;DHT22;40833;53.238;6.576;2023-08-06T09:25:59;20.50;99.90
54930;DHT22;40833;53.238;6.576;2023-08-06T09:28:30;20.50;99.90
54930;DHT22;40833;53.238;6.576;2023-08-06T09:31:01;20.70;99.90
54930;DHT22;40833;53.238;6.576;2023-08-06T09:33:29;20.90;99.90
54930;DHT22;40833;53.238;6.576;2023-08-06T09:35:55;20.90;99.90
54930;DHT22;40833;53.238;6.576;2023-08-06T09:38:20;20.90;99.90
54930;DHT22;40833;53.238;6.576;2023-08-06T09:40:47;20.90;99.90
54930;DHT22;40833;53.238;6.576;2023-08-06T09:43:12;20.80;99.90
54930;DHT22;40833;53.238;6.576;2023-08-06T09:45:39;20.80;99.90
54930;DHT22;40833;53.238;6.576;2023-08-06T09:48:07;20.80;99.90
54930;DHT22;40833;53.238;6.576;2023-08-06T09:50:35;20.80;99.90
54930;DHT22;40833;53.238;6.576;2023-08-06T09:53:05;20.90;99.90
54930;DHT22;40833;53.238;6.576;2023-08-06T09:55:32;21.00;99.90
54930;DHT22;40833;53.238;6.576;2023-08-06T09:57:59;21.10;99.90
54930;DHT22;40833;53.238;6.576;2023-08-06T10:00:25;21.10;99.90
54930;DHT22;40833;53.238;6.576;2023-08-06T10:02:52;21.20;99.90
54930;DHT22;40833;53.238;6.576;2023-08-06T10:05:21;21.30;99.90
54930;DHT22;40833;53.238;6.576;2023-08-06T10:07:47;21.40;99.90
54930;DHT22;40833;53.238;6.576;2023-08-06T10:10:14;21.30;99.90
54930;DHT22;40833;53.238;6.576;2023-08-06T10:12:45;21.40;99.90
54930;DHT22;40833;53.238;6.576;2023-08-06T10:15:15;21.50;99.90
54930;DHT22;40833;53.238;6.576;2023-08-06T10:17:43;21.50;99.90
54930;DHT22;40833;53.238;6.576;2023-08-06T10:20:11;21.60;99.90
54930;DHT22;40833;53.238;6.576;2023-08-06T10:22:43;21.70;99.90
54930;DHT22;40833;53.238;6.576;2023-08-06T10:25:10;21.70;99.90
54930;DHT22;40833;53.238;6.576;2023-08-06T10:27:40;21.80;99.90
54930;DHT22;40833;53.238;6.576;2023-08-06T10:30:28;21.70;99.90
54930;DHT22;40833;53.238;6.576;2023-08-06T10:33:01;21.60;99.90
54930;DHT22;40833;53.238;6.576;2023-08-06T10:35:43;21.60;99.90
54930;DHT22;40833;53.238;6.576;2023-08-06T10:43:36;22.00;99.90
54930;DHT22;40833;53.238;6.576;2023-08-06T10:46:27;22.00;99.90
54930;DHT22;40833;53.238;6.576;2023-08-06T10:48:53;22.20;99.90
54930;DHT22;40833;53.238;6.576;2023-08-06T10:51:19;22.30;99.90
54930;DHT22;40833;53.238;6.576;2023-08-06T10:53:46;22.40;99.90
54930;DHT22;40833;53.238;6.576;2023-08-06T10:56:20;22.50;99.90
54930;DHT22;40833;53.238;6.576;2023-08-06T10:58:48;22.60;99.90
54930;DHT22;40833;53.238;6.576;2023-08-06T11:01:14;22.70;99.90
54930;DHT22;40833;53.238;6.576;2023-08-06T11:03:42;22.90;99.90
54930;DHT22;40833;53.238;6.576;2023-08-06T11:06:08;22.90;99.90
54930;DHT22;40833;53.238;6.576;2023-08-06T11:08:35;22.80;99.90
54930;DHT22;40833;53.238;6.576;2023-08-06T11:11:13;22.70;99.90
54930;DHT22;40833;53.238;6.576;2023-08-06T11:13:57;22.70;99.90
54930;DHT22;40833;53.238;6.576;2023-08-06T11:16:23;22.60;99.90
54930;DHT22;40833;53.238;6.576;2023-08-06T11:18:50;22.60;99.90
54930;DHT22;40833;53.238;6.576;2023-08-06T11:21:22;22.60;99.90
54930;DHT22;40833;53.238;6.576;2023-08-06T11:23:48;22.70;99.90
54930;DHT22;40833;53.238;6.576;2023-08-06T11:26:21;22.80;99.90
54930;DHT22;40833;53.238;6.576;2023-08-06T11:28:49;22.90;99.90
54930;DHT22;40833;53.238;6.576;2023-08-06T11:31:22;22.90;99.90
54930;DHT22;40833;53.238;6.576;2023-08-06T11:33:53;22.90;99.90
54930;DHT22;40833;53.238;6.576;2023-08-06T11:36:32;22.90;99.90
54930;DHT22;40833;53.238;6.576;2023-08-06T11:39:01;22.90;99.90
54930;DHT22;40833;53.238;6.576;2023-08-06T11:41:29;22.90;99.90
54930;DHT22;40833;53.238;6.576;2023-08-06T11:43:54;22.90;99.90
54930;DHT22;40833;53.238;6.576;2023-08-06T11:46:20;22.80;99.90
54930;DHT22;40833;53.238;6.576;2023-08-06T11:48:55;22.90;99.90
54930;DHT22;40833;53.238;6.576;2023-08-06T11:51:25;22.90;99.90
54930;DHT22;40833;53.238;6.576;2023-08-06T11:53:57;22.90;99.90
54930;DHT22;40833;53.238;6.576;2023-08-06T11:56:24;22.90;99.90
54930;DHT22;40833;53.238;6.576;2023-08-06T11:58:51;22.80;99.90
54930;DHT22;40833;53.238;6.576;2023-08-06T12:01:18;22.80;99.90
54930;DHT22;40833;53.238;6.576;2023-08-06T12:03:43;22.80;99.90
54930;DHT22;40833;53.238;6.576;2023-08-06T12:06:09;22.80;99.90
54930;DHT22;40833;53.238;6.576;2023-08-06T12:08:35;22.90;99.90
54930;DHT22;40833;53.238;6.576;2023-08-06T12:11:01;22.90;99.90
54930;DHT22;40833;53.238;6.576;2023-08-06T12:13:26;22.90;99.90
54930;DHT22;40833;53.238;6.576;2023-08-06T12:15:54;23.00;99.90
54930;DHT22;40833;53.238;6.576;2023-08-06T12:18:19;23.00;99.90
54930;DHT22;40833;53.238;6.576;2023-08-06T12:20:45;22.90;99.90
54930;DHT22;40833;53.238;6.576;2023-08-06T12:23:11;22.90;99.90
54930;DHT22;40833;53.238;6.576;2023-08-06T12:25:41;22.90;99.90
54930;DHT22;40833;53.238;6.576;2023-08-06T12:28:07;22.80;99.90
54930;DHT22;40833;53.238;6.576;2023-08-06T12:30:34;23.00;99.90
54930;DHT22;40833;53.238;6.576;2023-08-06T12:32:59;23.10;99.90
54930;DHT22;40833;53.238;6.576;2023-08-06T12:35:25;23.20;99.90
54930;DHT22;40833;53.238;6.576;2023-08-06T12:37:51;23.20;99.90
54930;DHT22;40833;53.238;6.576;2023-08-06T12:40:20;23.20;99.90
54930;DHT22;40833;53.238;6.576;2023-08-06T12:42:46;23.20;99.90
54930;DHT22;40833;53.238;6.576;2023-08-06T12:45:11;22.10;99.90
54930;DHT22;40833;53.238;6.576;2023-08-06T12:47:37;23.30;99.90
54930;DHT22;40833;53.238;6.576;2023-08-06T12:50:03;23.30;99.90
54930;DHT22;40833;53.238;6.576;2023-08-06T12:52:29;23.20;99.90
54930;DHT22;40833;53.238;6.576;2023-08-06T12:54:55;23.20;99.90
54930;DHT22;40833;53.238;6.576;2023-08-06T12:57:20;23.10;99.90
54930;DHT22;40833;53.238;6.576;2023-08-06T12:59:46;23.10;99.90
54930;DHT22;40833;53.238;6.576;2023-08-06T13:02:12;23.00;99.90
54930;DHT22;40833;53.238;6.576;2023-08-06T13:04:37;22.70;99.90
54930;DHT22;40833;53.238;6.576;2023-08-06T13:07:03;22.50;99.90
54930;DHT22;40833;53.238;6.576;2023-08-06T13:09:32;22.60;99.90
54930;DHT22;40833;53.238;6.576;2023-08-06T13:11:58;22.80;99.90
54930;DHT22;40833;53.238;6.576;2023-08-06T13:14:25;22.90;99.90
54930;DHT22;40833;53.238;6.576;2023-08-06T13:16:51;22.80;99.90
54930;DHT22;40833;53.238;6.576;2023-08-06T13:19:16;22.90;99.90
54930;DHT22;40833;53.238;6.576;2023-08-06T13:24:15;23.20;99.90
54930;DHT22;40833;53.238;6.576;2023-08-06T13:26:41;23.40;99.90
54930;DHT22;40833;53.238;6.576;2023-08-06T13:29:06;23.30;99.90
54930;DHT22;40833;53.238;6.576;2023-08-06T13:31:32;23.10;99.90
54930;DHT22;40833;53.238;6.576;2023-08-06T13:33:58;23.00;99.90
54930;DHT22;40833;53.238;6.576;2023-08-06T13:36:27;23.00;99.90
54930;DHT22;40833;53.238;6.576;2023-08-06T13:38:53;22.90;99.90
54930;DHT22;40833;53.238;6.576;2023-08-06T13:41:19;22.70;99.90
54930;DHT22;40833;53.238;6.576;2023-08-06T13:43:44;22.70;99.90
54930;DHT22;40833;53.238;6.576;2023-08-06T13:46:11;22.80;99.90
54930;DHT22;40833;53.238;6.576;2023-08-06T13:48:42;22.90;99.90
54930;DHT22;40833;53.238;6.576;2023-08-06T13:51:08;23.20;99.90
54930;DHT22;40833;53.238;6.576;2023-08-06T13:53:33;23.20;99.90
54930;DHT22;40833;53.238;6.576;2023-08-06T13:55:59;23.20;99.90
54930;DHT22;40833;53.238;6.576;2023-08-06T13:58:25;23.30;99.90
54930;DHT22;40833;53.238;6.576;2023-08-06T14:00:53;23.30;99.90
54930;DHT22;40833;53.238;6.576;2023-08-06T14:03:20;23.40;99.90
54930;DHT22;40833;53.238;6.576;2023-08-06T14:05:45;23.30;99.90
54930;DHT22;40833;53.238;6.576;2023-08-06T14:08:11;23.40;99.90
54930;DHT22;40833;53.238;6.576;2023-08-06T14:10:37;23.40;99.90
54930;DHT22;40833;53.238;6.576;2023-08-06T14:13:03;23.40;99.90
54930;DHT22;40833;53.238;6.576;2023-08-06T14:15:28;23.40;99.90
54930;DHT22;40833;53.238;6.576;2023-08-06T14:17:54;23.40;99.90
54930;DHT22;40833;53.238;6.576;2023-08-06T14:20:20;23.60;99.90
54930;DHT22;40833;53.238;6.576;2023-08-06T14:22:45;23.60;99.90
54930;DHT22;40833;53.238;6.576;2023-08-06T14:25:11;23.90;99.90
54930;DHT22;40833;53.238;6.576;2023-08-06T14:27:37;24.00;99.90
54930;DHT22;40833;53.238;6.576;2023-08-06T14:30:06;24.20;99.90
54930;DHT22;40833;53.238;6.576;2023-08-06T14:32:32;24.40;99.90
54930;DHT22;40833;53.238;6.576;2023-08-06T14:34:58;24.50;99.90
54930;DHT22;40833;53.238;6.576;2023-08-06T14:37:24;24.60;99.90
54930;DHT22;40833;53.238;6.576;2023-08-06T14:39:51;24.70;99.90
54930;DHT22;40833;53.238;6.576;2023-08-06T14:42:17;24.70;99.90
54930;DHT22;40833;53.238;6.576;2023-08-06T14:44:43;24.60;99.90
54930;DHT22;40833;53.238;6.576;2023-08-06T14:47:08;24.70;99.90
54930;DHT22;40833;53.238;6.576;2023-08-06T14:49:34;24.70;99.90
54930;DHT22;40833;53.238;6.576;2023-08-06T14:52:00;24.70;99.90
54930;DHT22;40833;53.238;6.576;2023-08-06T14:54:27;24.70;99.90
54930;DHT22;40833;53.238;6.576;2023-08-06T14:56:53;24.80;99.90
54930;DHT22;40833;53.238;6.576;2023-08-06T14:59:18;24.80;99.90
54930;DHT22;40833;53.238;6.576;2023-08-06T15:01:44;24.80;99.90
54930;DHT22;40833;53.238;6.576;2023-08-06T15:04:10;24.90;99.90
54930;DHT22;40833;53.238;6.576;2023-08-06T15:06:35;24.70;99.90
54930;DHT22;40833;53.238;6.576;2023-08-06T15:09:01;24.80;99.90
54930;DHT22;40833;53.238;6.576;2023-08-06T15:11:27;25.00;99.90
54930;DHT22;40833;53.238;6.576;2023-08-06T15:13:53;25.00;99.90
54930;DHT22;40833;53.238;6.576;2023-08-06T15:16:18;25.20;99.90
54930;DHT22;40833;53.238;6.576;2023-08-06T15:18:44;25.40;99.90
54930;DHT22;40833;53.238;6.576;2023-08-06T15:21:10;25.70;99.90
54930;DHT22;40833;53.238;6.576;2023-08-06T15:23:36;25.70;99.90
54930;DHT22;40833;53.238;6.576;2023-08-06T15:26:04;25.50;99.90
54930;DHT22;40833;53.238;6.576;2023-08-06T15:28:30;25.50;99.90
54930;DHT22;40833;53.238;6.576;2023-08-06T15:30:56;25.70;99.90
54930;DHT22;40833;53.238;6.576;2023-08-06T15:33:22;26.00;99.90
54930;DHT22;40833;53.238;6.576;2023-08-06T15:35:48;26.40;99.90
54930;DHT22;40833;53.238;6.576;2023-08-06T15:38:14;26.60;99.90
54930;DHT22;40833;53.238;6.576;2023-08-06T15:40:40;26.80;99.90